TimeEST,TemperatureF,Dew PointF,Humidity,Sea Level PressureIn,VisibilityMPH,Wind Direction,Wind SpeedMPH,Gust SpeedMPH,PrecipitationIn,Events,Conditions,WindDirDegrees,DateUTC
12:51 AM,41.0,28.0,60,29.88,10.0,SSW,11.5,-,N/A,,Clear,200,2013-01-20 05:51:00
1:51 AM,39.2,28.4,65,29.85,10.0,SSW,9.2,-,N/A,,Clear,200,2013-01-20 06:51:00
2:51 AM,37.0,28.9,73,29.85,10.0,South,5.8,-,N/A,,Clear,190,2013-01-20 07:51:00
3:51 AM,37.0,28.9,73,29.82,10.0,SSW,6.9,-,N/A,,Clear,200,2013-01-20 08:51:00
4:51 AM,35.1,28.0,76,29.78,10.0,SSW,4.6,-,N/A,,Clear,200,2013-01-20 09:51:00
5:51 AM,35.1,28.9,78,29.76,10.0,South,4.6,-,N/A,,Clear,190,2013-01-20 10:51:00
6:51 AM,36.0,28.9,76,29.74,10.0,South,6.9,-,N/A,,Clear,180,2013-01-20 11:51:00
7:51 AM,36.0,30.0,79,29.73,10.0,SSW,4.6,-,N/A,,Clear,200,2013-01-20 12:51:00
8:51 AM,42.1,30.0,62,29.75,10.0,SSW,8.1,-,N/A,,Clear,200,2013-01-20 13:51:00
9:51 AM,48.0,28.9,48,29.74,10.0,SSW,13.8,-,N/A,,Clear,210,2013-01-20 14:51:00
10:51 AM,51.1,28.0,41,29.73,10.0,WSW,13.8,34.5,N/A,,Clear,240,2013-01-20 15:51:00
11:51 AM,52.0,28.9,41,29.70,10.0,WSW,18.4,27.6,N/A,,Clear,250,2013-01-20 16:51:00
12:51 PM,53.1,28.0,38,29.69,10.0,WSW,23.0,35.7,N/A,,Partly Cloudy,250,2013-01-20 17:51:00
1:51 PM,53.1,27.0,37,29.70,10.0,West,12.7,23.0,N/A,,Clear,270,2013-01-20 18:51:00
2:51 PM,51.1,14.0,23,29.74,10.0,West,24.2,39.1,N/A,,Clear,270,2013-01-20 19:51:00
3:51 PM,50.0,15.1,25,29.78,10.0,West,17.3,27.6,N/A,,Clear,270,2013-01-20 20:51:00
4:51 PM,46.9,12.0,24,29.82,10.0,West,21.9,31.1,N/A,,Clear,280,2013-01-20 21:51:00
5:51 PM,44.6,15.8,31,29.86,10.0,NW,13.8,21.9,N/A,,Clear,320,2013-01-20 22:51:00
6:51 PM,39.0,17.1,41,29.91,10.0,NW,17.3,23.0,N/A,,Clear,310,2013-01-20 23:51:00
7:51 PM,37.0,15.1,41,29.95,10.0,NW,9.2,-,N/A,,Clear,320,2013-01-21 00:51:00
8:51 PM,35.1,12.9,40,29.98,10.0,NW,18.4,26.5,N/A,,Clear,310,2013-01-21 01:51:00
9:51 PM,32.0,12.2,44,30.00,10.0,NW,15.0,23.0,N/A,,Clear,310,2013-01-21 02:51:00
10:51 PM,30.9,10.9,43,30.02,10.0,NW,11.5,18.4,N/A,,Clear,320,2013-01-21 03:51:00
11:51 PM,30.0,9.0,41,30.04,10.0,NNW,11.5,-,N/A,,Clear,330,2013-01-21 04:51:00